Time;durP1;ratioP1;P1;durP2;ratioP2;P2;SDS_P1;SDS_P2;PMS_P1;PMS_P2;Temp;Humidity;BMP_temperature;BMP_pressure;BME280_temperature;BME280_humidity;BME280_pressure;Samples;Min_cycle;Max_cycle;Signal;HPM_P1;HPM_P2
2023/10/18 00:01:01;;;;;;;15.32;6.97;;;;;;;6.18;100.00;101227.47;5068671;28;20070;-73
2023/10/18 00:03:29;;;;;;;13.57;6.13;;;;;;;6.25;100.00;101233.81;5068814;28;20031;-74
2023/10/18 00:05:59;;;;;;;13.35;6.38;;;;;;;6.25;100.00;101228.50;5054595;28;20118;-73
2023/10/18 00:08:24;;;;;;;13.98;6.30;;;;;;;6.25;100.00;101234.63;5049609;28;20083;-73
2023/10/18 00:10:53;;;;;;;11.50;6.40;;;;;;;6.26;100.00;101233.66;5049533;28;20037;-73
2023/10/18 00:13:22;;;;;;;13.75;6.35;;;;;;;6.24;100.00;101232.97;5059878;28;20360;-73
2023/10/18 00:15:53;;;;;;;11.00;5.38;;;;;;;6.24;100.00;101232.16;5049504;28;20061;-73
2023/10/18 00:18:20;;;;;;;14.40;6.45;;;;;;;6.25;100.00;101234.63;5049036;28;20427;-73
2023/10/18 00:20:46;;;;;;;14.07;6.85;;;;;;;6.24;100.00;101232.97;5049147;28;20036;-73
2023/10/18 00:23:11;;;;;;;13.70;6.15;;;;;;;6.24;100.00;101230.34;5049202;28;20078;-73
2023/10/18 00:25:36;;;;;;;10.60;6.05;;;;;;;6.23;100.00;101233.13;5031447;28;20526;-73
2023/10/18 00:28:03;;;;;;;11.80;6.20;;;;;;;6.25;100.00;101225.84;5053275;28;20037;-73
2023/10/18 00:30:30;;;;;;;13.23;7.15;;;;;;;6.19;100.00;101216.75;5068451;28;20112;-73
2023/10/18 00:32:56;;;;;;;13.20;7.13;;;;;;;6.21;100.00;101212.13;5063205;28;20028;-73
2023/10/18 00:35:23;;;;;;;12.75;6.97;;;;;;;6.20;100.00;101226.34;5049258;28;20563;-73
2023/10/18 00:37:50;;;;;;;11.52;6.53;;;;;;;6.16;100.00;101203.81;5049304;28;20033;-73
2023/10/18 00:42:53;;;;;;;15.20;7.35;;;;;;;6.22;100.00;101223.53;5053774;28;20166;-73
2023/10/18 00:45:21;;;;;;;13.48;7.13;;;;;;;6.19;100.00;101221.22;5055812;28;20036;-73
2023/10/18 00:47:48;;;;;;;13.07;6.47;;;;;;;6.17;100.00;101221.34;5068291;28;20029;-73
2023/10/18 00:50:14;;;;;;;13.50;6.57;;;;;;;6.17;100.00;101225.81;5055571;28;20043;-73
2023/10/18 00:52:40;;;;;;;12.93;6.78;;;;;;;6.15;100.00;101218.03;5049279;28;20116;-73
2023/10/18 00:55:08;;;;;;;11.43;6.68;;;;;;;6.17;100.00;101213.41;5063997;28;20571;-73
2023/10/18 00:57:37;;;;;;;13.95;6.07;;;;;;;6.09;100.00;101205.44;5059363;28;20032;-73
2023/10/18 01:00:07;;;;;;;14.00;6.30;;;;;;;6.17;100.00;101213.41;5061927;28;20106;-73
2023/10/18 01:02:36;;;;;;;15.55;7.43;;;;;;;6.17;100.00;101215.25;5063266;28;20051;-73
2023/10/18 01:05:10;;;;;;;13.10;6.28;;;;;;;6.13;100.00;101204.09;5055538;28;20369;-73
2023/10/18 01:07:36;;;;;;;14.75;6.00;;;;;;;6.11;100.00;101206.94;5061110;28;20056;-73
2023/10/18 01:10:07;;;;;;;14.25;6.65;;;;;;;6.07;100.00;101202.94;5052338;28;20041;-73
2023/10/18 01:12:34;;;;;;;12.55;6.18;;;;;;;6.05;100.00;101186.41;5058828;28;20059;-73
2023/10/18 01:15:00;;;;;;;12.68;5.97;;;;;;;6.09;100.00;101200.13;5037103;28;20145;-73
2023/10/18 01:17:25;;;;;;;16.38;6.78;;;;;;;6.06;100.00;101196.00;5053340;28;20060;-73
2023/10/18 01:19:53;;;;;;;13.07;6.97;;;;;;;6.06;100.00;101197.81;5071193;28;20025;-73
2023/10/18 01:22:19;;;;;;;12.45;6.97;;;;;;;6.05;100.00;101194.34;5044780;28;20400;-73
2023/10/18 01:24:45;;;;;;;10.70;5.80;;;;;;;6.04;100.00;101181.25;5057778;28;20120;-73
2023/10/18 01:27:12;;;;;;;15.23;6.63;;;;;;;6.02;100.00;101173.44;5051840;28;20033;-73
2023/10/18 01:29:38;;;;;;;13.40;7.10;;;;;;;6.00;100.00;101169.31;5055739;28;20029;-74
2023/10/18 01:32:04;;;;;;;14.80;7.93;;;;;;;5.98;100.00;101169.47;5048205;28;20025;-73
2023/10/18 01:34:31;;;;;;;13.15;6.25;;;;;;;5.96;100.00;101163.50;5052132;28;20075;-74
2023/10/18 01:36:58;;;;;;;15.98;7.03;;;;;;;5.93;100.00;101162.00;5068798;28;20063;-73
2023/10/18 01:39:28;;;;;;;14.75;6.38;;;;;;;5.93;100.00;101167.28;5071131;28;20032;-73
2023/10/18 01:41:54;;;;;;;13.93;6.70;;;;;;;5.93;100.00;101158.50;5071184;28;20464;-73
2023/10/18 01:44:30;;;;;;;11.75;5.97;;;;;;;5.92;100.00;101149.75;5070887;28;20510;-73
2023/10/18 01:46:59;;;;;;;12.60;7.18;;;;;;;5.89;100.00;101147.41;5070847;28;20103;-73
2023/10/18 01:49:25;;;;;;;11.55;6.28;;;;;;;5.88;100.00;101142.25;5058992;28;20029;-73
2023/10/18 01:51:53;;;;;;;15.73;6.57;;;;;;;5.84;100.00;101136.47;5070585;28;20369;-73
2023/10/18 01:54:25;;;;;;;13.52;6.80;;;;;;;5.79;100.00;101132.63;5070749;28;20021;-73
2023/10/18 01:56:51;;;;;;;17.27;7.90;;;;;;;5.74;100.00;101117.22;5070759;28;20032;-73
2023/10/18 01:59:17;;;;;;;16.95;6.57;;;;;;;5.68;100.00;101121.31;5070664;28;20020;-73
2023/10/18 02:02:06;;;;;;;14.00;6.65;;;;;;;5.67;100.00;101110.91;5070610;28;21053;-73
2023/10/18 02:04:36;;;;;;;13.30;6.18;;;;;;;5.73;100.00;101115.56;5070194;28;20028;-73
2023/10/18 02:07:03;;;;;;;14.20;6.50;;;;;;;5.71;100.00;101126.31;5070229;28;20055;-74
2023/10/18 02:09:35;;;;;;;13.95;6.80;;;;;;;5.67;100.00;101116.19;5033398;28;20151;-73
2023/10/18 02:12:01;;;;;;;12.82;6.43;;;;;;;5.68;100.00;101116.03;5051202;28;20043;-73
2023/10/18 02:14:27;;;;;;;15.75;6.78;;;;;;;5.68;100.00;101109.91;5051251;28;20540;-73
2023/10/18 02:16:53;;;;;;;16.27;7.47;;;;;;;5.68;100.00;101112.56;5051447;28;20082;-73
2023/10/18 02:19:21;;;;;;;15.90;6.72;;;;;;;5.67;100.00;101113.56;5034403;28;20040;-74
2023/10/18 02:21:47;;;;;;;12.40;6.65;;;;;;;5.67;100.00;101110.91;5070163;28;20043;-73
2023/10/18 02:24:13;;;;;;;15.85;6.93;;;;;;;5.66;100.00;101104.78;5069999;28;20028;-73
2023/10/18 02:26:47;;;;;;;12.95;6.78;;;;;;;5.63;100.00;101094.53;5063711;28;20052;-73
2023/10/18 02:29:13;;;;;;;12.70;6.13;;;;;;;5.64;100.00;101092.72;5032871;28;20033;-73
2023/10/18 02:31:41;;;;;;;17.50;6.38;;;;;;;5.60;100.00;101081.59;5062064;28;20435;-73
2023/10/18 02:34:09;;;;;;;16.13;7.50;;;;;;;5.60;100.00;101075.47;5069846;28;20029;-73
2023/10/18 02:36:40;;;;;;;13.30;6.75;;;;;;;5.60;100.00;101072.81;5069951;28;20020;-73
2023/10/18 02:39:09;;;;;;;16.20;7.68;;;;;;;5.58;100.00;101080.09;5069884;28;20033;-73
2023/10/18 02:41:37;;;;;;;14.07;6.57;;;;;;;5.60;100.00;101075.47;5060832;28;20050;-73
2023/10/18 02:44:08;;;;;;;14.25;6.57;;;;;;;5.60;100.00;101081.59;5061762;28;20108;-73
2023/10/18 02:46:33;;;;;;;16.33;6.53;;;;;;;5.57;100.00;101079.25;5050774;28;20577;-73
2023/10/18 02:49:00;;;;;;;11.00;5.95;;;;;;;5.57;100.00;101073.16;5032640;28;20037;-73
2023/10/18 02:51:28;;;;;;;14.85;7.82;;;;;;;5.60;100.00;101070.19;5050470;28;20457;-73
2023/10/18 02:54:07;;;;;;;15.00;6.65;;;;;;;5.60;100.00;101072.81;5039844;28;20067;-73
2023/10/18 02:56:36;;;;;;;14.35;6.38;;;;;;;5.60;100.00;101067.53;5068003;28;20029;-73
2023/10/18 02:59:06;;;;;;;14.65;6.82;;;;;;;5.51;100.00;101047.34;5069441;28;20035;-74
2023/10/18 03:01:33;;;;;;;12.45;6.13;;;;;;;5.55;100.00;101054.78;5060899;28;20476;-73
2023/10/18 03:04:00;;;;;;;15.20;6.45;;;;;;;5.58;100.00;101056.28;5050236;28;20037;-73
2023/10/18 03:06:28;;;;;;;13.32;7.40;;;;;;;5.55;100.00;101054.78;5047443;28;20454;-73
2023/10/18 03:08:58;;;;;;;13.50;5.93;;;;;;;5.59;100.00;101058.78;5069310;28;20055;-73
2023/10/18 03:11:25;;;;;;;12.73;6.10;;;;;;;5.55;100.00;101044.19;5069337;28;20029;-73
2023/10/18 03:13:51;;;;;;;13.95;6.40;;;;;;;5.58;100.00;101046.56;5049353;28;20028;-73
2023/10/18 03:16:27;;;;;;;13.13;6.25;;;;;;;5.60;100.00;101038.44;5049460;28;20040;-73
2023/10/18 03:18:53;;;;;;;10.52;5.28;;;;;;;5.62;100.00;101028.53;5033688;28;20051;-73
2023/10/18 03:21:22;;;;;;;10.20;5.05;;;;;;;5.55;100.00;101025.69;5060557;28;20064;-74
2023/10/18 03:23:51;;;;;;;11.98;5.80;;;;;;;5.62;100.00;101034.63;5069111;28;20086;-73
2023/10/18 03:26:27;;;;;;;14.40;6.47;;;;;;;5.62;100.00;101032.00;5063836;28;20033;-73
2023/10/18 03:28:53;;;;;;;13.00;5.80;;;;;;;5.61;100.00;101029.53;5052813;28;20108;-73
2023/10/18 03:31:28;;;;;;;11.90;6.30;;;;;;;5.63;100.00;101022.22;5049826;28;20128;-73
2023/10/18 03:34:06;;;;;;;11.68;5.60;;;;;;;5.61;100.00;101027.72;5033410;28;20060;-73
2023/10/18 03:36:32;;;;;;;11.98;6.60;;;;;;;5.62;100.00;101026.69;5049867;28;20025;-73
2023/10/18 03:39:10;;;;;;;13.88;6.90;;;;;;;5.62;100.00;101021.41;5057235;28;20032;-73
2023/10/18 03:41:40;;;;;;;11.57;6.30;;;;;;;5.59;100.00;101010.34;5068998;28;20033;-73
2023/10/18 03:44:06;;;;;;;12.55;5.43;;;;;;;5.61;100.00;101009.19;5051588;28;20594;-73
2023/10/18 03:46:39;;;;;;;14.18;6.35;;;;;;;5.61;100.00;101009.19;5059155;28;20167;-73
2023/10/18 03:49:16;;;;;;;14.38;6.40;;;;;;;5.63;100.00;101012.50;5054949;28;20029;-73
2023/10/18 03:51:41;;;;;;;12.38;6.90;;;;;;;5.63;100.00;101009.00;5063284;28;20037;-73
2023/10/18 03:54:12;;;;;;;15.82;6.88;;;;;;;5.63;100.00;101001.06;5049861;28;20100;-73
2023/10/18 03:56:38;;;;;;;13.15;8.02;;;;;;;5.61;100.00;101000.44;5049733;28;20487;-73
2023/10/18 03:59:40;;;;;;;14.32;6.43;;;;;;;5.64;100.00;100995.63;5049571;28;20025;-73
2023/10/18 04:02:06;;;;;;;10.55;5.63;;;;;;;5.67;100.00;100994.47;5046267;28;20064;-73
2023/10/18 04:04:38;;;;;;;13.43;5.68;;;;;;;5.65;100.00;100997.28;5058799;28;20040;-73
2023/10/18 04:07:17;;;;;;;12.73;6.03;;;;;;;5.61;100.00;100990.66;5044700;28;20163;-73
2023/10/18 04:09:53;;;;;;;13.93;6.68;;;;;;;5.60;100.00;100978.41;5039029;28;20033;-73
2023/10/18 04:12:25;;;;;;;13.75;6.13;;;;;;;5.60;100.00;100978.41;5050391;28;20036;-73
2023/10/18 04:14:58;;;;;;;17.50;7.55;;;;;;;5.58;100.00;100977.75;5062430;28;20030;-73
2023/10/18 04:17:36;;;;;;;13.13;6.03;;;;;;;5.52;100.00;100959.88;5067487;28;20074;-73
2023/10/18 04:22:47;;;;;;;10.77;5.32;;;;;;;5.42;100.00;100938.88;5059826;28;20039;-73
2023/10/18 04:25:56;;;;;;;11.88;5.60;;;;;;;5.55;100.00;100962.19;5049039;28;20970;-73
2023/10/18 04:28:05;;;;;;;13.00;6.05;;;;;;;5.51;100.00;100944.16;5047319;28;20128;-74
2023/10/18 04:30:30;;;;;;;12.60;5.88;;;;;;;5.55;100.00;100948.97;5063134;28;20112;-73
2023/10/18 04:32:59;;;;;;;14.55;7.25;;;;;;;5.55;100.00;100945.50;5060867;28;20051;-73
2023/10/18 04:35:33;;;;;;;12.93;6.05;;;;;;;5.56;100.00;100942.69;5066493;28;20141;-73
2023/10/18 04:37:58;;;;;;;11.38;6.45;;;;;;;5.56;100.00;100928.66;5053070;28;20150;-73
2023/10/18 04:40:27;;;;;;;12.20;5.68;;;;;;;5.56;100.00;100923.34;5053059;28;20104;-74
2023/10/18 04:42:57;;;;;;;15.95;6.95;;;;;;;5.59;100.00;100926.50;5068912;28;20040;-73
2023/10/18 04:45:23;;;;;;;14.32;7.10;;;;;;;5.57;100.00;100917.88;5054965;28;20036;-73
2023/10/18 04:47:49;;;;;;;14.93;6.40;;;;;;;5.61;100.00;100919.22;5053020;28;20025;-73
2023/10/18 04:50:29;;;;;;;16.42;6.32;;;;;;;5.63;100.00;100916.41;5054238;28;20051;-73
2023/10/18 04:52:58;;;;;;;14.25;5.88;;;;;;;5.62;100.00;100918.22;5052726;28;20476;-74
2023/10/18 04:55:25;;;;;;;13.48;5.88;;;;;;;5.65;100.00;100922.38;5052674;28;20078;-73
2023/10/18 04:57:53;;;;;;;13.95;6.38;;;;;;;5.66;100.00;100911.63;5036790;28;20033;-73
2023/10/18 05:00:25;;;;;;;12.38;5.97;;;;;;;5.61;100.00;100903.34;5068238;28;20031;-73
2023/10/18 05:02:59;;;;;;;14.90;6.47;;;;;;;5.63;100.00;100900.53;5052688;28;20025;-73
2023/10/18 05:05:26;;;;;;;11.38;5.63;;;;;;;5.64;100.00;100900.38;5068419;28;20139;-73
2023/10/18 05:07:54;;;;;;;13.70;6.10;;;;;;;5.66;100.00;100900.22;5053289;28;20025;-73
2023/10/18 05:10:21;;;;;;;14.20;6.70;;;;;;;5.67;100.00;100899.22;5042631;28;20447;-73
2023/10/18 05:15:21;;;;;;;14.48;6.45;;;;;;;5.61;100.00;100890.13;5052455;28;20039;-73
2023/10/18 05:17:50;;;;;;;10.48;6.03;;;;;;;5.66;100.00;100905.53;5034929;28;20033;-73
2023/10/18 05:22:50;;;;;;;14.18;5.93;;;;;;;5.68;100.00;100903.50;5068956;28;20071;-73
2023/10/18 05:34:12;;;;;;;13.55;5.75;;;;;;;5.63;100.00;100895.25;5054179;28;20103;-73
2023/10/18 05:41:28;;;;;;;23.20;6.90;;;;;;;5.63;100.00;100893.44;5070117;28;20115;-73
2023/10/18 05:44:00;;;;;;;10.80;4.63;;;;;;;5.54;100.00;100873.25;5070714;28;20035;-73
2023/10/18 05:46:27;;;;;;;;;;;;;;;5.64;100.00;100875.75;5062086;28;20041;-73
2023/10/18 05:48:57;;;;;;;15.10;7.20;;;;;;;5.60;100.00;100872.56;5051749;28;19908;-72
2023/10/18 05:51:32;;;;;;;14.75;5.60;;;;;;;5.60;100.00;100869.09;5052642;28;20391;-72
2023/10/18 05:54:02;;;;;;;12.13;6.35;;;;;;;5.59;100.00;100868.28;5070366;28;20028;-73
2023/10/18 05:56:32;;;;;;;15.30;6.80;;;;;;;5.59;100.00;100862.19;5052334;28;20044;-74
2023/10/18 06:01:47;;;;;;;11.48;5.93;;;;;;;5.63;100.00;100877.56;5070836;28;20206;-73
2023/10/18 06:04:13;;;;;;;11.82;5.65;;;;;;;5.62;100.00;100873.25;5070504;28;20032;-74
2023/10/18 06:06:39;;;;;;;11.40;5.88;;;;;;;5.62;100.00;100867.97;5059698;28;20052;-73
2023/10/18 06:09:11;;;;;;;12.65;5.75;;;;;;;5.52;100.00;100842.66;5053616;28;20032;-73
2023/10/18 06:11:38;;;;;;;12.85;5.63;;;;;;;5.62;100.00;100856.56;5050336;28;20459;-73
2023/10/18 06:14:08;;;;;;;13.68;5.45;;;;;;;5.63;100.00;100863.50;5050354;28;20033;-73
2023/10/18 06:16:34;;;;;;;15.10;6.13;;;;;;;5.62;100.00;100865.31;5050334;28;20535;-73
2023/10/18 06:19:03;;;;;;;15.27;6.75;;;;;;;5.61;100.00;100852.25;5060765;28;20048;-73
2023/10/18 06:21:29;;;;;;;12.27;5.25;;;;;;;5.60;100.00;100846.13;5061731;28;20032;-73
2023/10/18 06:23:54;;;;;;;13.60;6.38;;;;;;;5.61;100.00;100845.16;5033160;28;20029;-73
2023/10/18 06:26:30;;;;;;;14.00;5.60;;;;;;;5.65;100.00;100851.75;5039095;28;20029;-74
2023/10/18 06:29:01;;;;;;;14.00;6.30;;;;;;;5.68;100.00;100842.66;5058080;28;20512;-72
2023/10/18 06:31:30;;;;;;;13.88;5.78;;;;;;;5.65;100.00;100840.34;5057396;28;20036;-72
2023/10/18 06:33:57;;;;;;;14.27;8.30;;;;;;;5.70;100.00;100840.69;5067481;28;20024;-73
2023/10/18 06:36:24;;;;;;;14.30;6.72;;;;;;;5.67;100.00;100827.78;5040397;28;20497;-73
2023/10/18 06:38:51;;;;;;;12.75;5.95;;;;;;;5.72;100.00;100826.28;5069832;28;20127;-73
2023/10/18 06:41:23;;;;;;;13.73;5.30;;;;;;;5.77;100.00;100828.44;5035202;28;20025;-74
2023/10/18 06:43:54;;;;;;;12.35;4.90;;;;;;;5.81;100.00;100829.75;5032362;28;20082;-73
2023/10/18 06:46:26;;;;;;;11.38;4.85;;;;;;;5.84;100.00;100825.94;5061486;28;20101;-72
2023/10/18 06:48:54;;;;;;;;;;;;;;;5.88;100.00;100817.53;5069926;28;20113;-73
2023/10/18 06:51:30;;;;;;;13.00;7.15;;;;;;;5.84;100.00;100808.28;5051208;28;20318;-73
2023/10/18 06:54:05;;;;;;;11.02;5.50;;;;;;;5.88;100.00;100814.88;5036293;28;20543;-73
2023/10/18 06:56:39;;;;;;;14.93;6.57;;;;;;;5.89;100.00;100807.75;5032213;28;20024;-72
2023/10/18 06:59:08;;;;;;;12.70;6.03;;;;;;;5.92;100.00;100802.97;5050440;28;20029;-72
2023/10/18 07:01:41;;;;;;;12.73;5.38;;;;;;;5.95;100.00;100799.19;5050195;28;20125;-75
2023/10/18 07:04:18;;;;;;;11.75;5.40;;;;;;;5.91;100.00;100788.06;5050122;28;20511;-72
2023/10/18 07:06:44;;;;;;;13.70;6.50;;;;;;;5.99;100.00;100791.72;5033704;28;20053;-72
2023/10/18 07:09:24;;;;;;;14.68;6.35;;;;;;;6.03;100.00;100787.75;5049955;28;20040;-72
2023/10/18 07:11:51;;;;;;;13.32;6.28;;;;;;;6.03;100.00;100788.59;5055777;28;20032;-72
2023/10/18 07:14:16;;;;;;;14.43;6.38;;;;;;;6.03;100.00;100778.00;5068942;28;20029;-73
2023/10/18 07:16:42;;;;;;;11.82;5.07;;;;;;;6.08;100.00;100778.31;5058821;28;20040;-73
2023/10/18 07:19:26;;;;;;;12.82;5.63;;;;;;;6.16;100.00;100780.13;5049587;28;20684;-74
2023/10/18 07:21:55;;;;;;;13.40;5.97;;;;;;;6.18;100.00;100783.41;5057962;28;20028;-73
2023/10/18 07:24:21;;;;;;;8.77;4.97;;;;;;;6.25;100.00;100784.38;5055646;28;20020;-74
2023/10/18 07:26:48;;;;;;;14.98;5.70;;;;;;;6.29;100.00;100783.06;5032211;28;20369;-74
2023/10/18 07:29:17;;;;;;;15.43;5.03;;;;;;;6.27;100.00;100769.16;5040834;28;20036;-72
2023/10/18 07:31:46;;;;;;;12.10;5.72;;;;;;;6.36;100.00;100776.06;5036155;28;20102;-72
2023/10/18 07:34:17;;;;;;;13.43;5.25;;;;;;;6.39;100.00;100766.94;5069041;28;20058;-72
2023/10/18 07:36:46;;;;;;;11.90;5.05;;;;;;;6.44;100.00;100766.44;5063681;28;20374;-73
2023/10/18 07:39:16;;;;;;;8.70;4.93;;;;;;;6.41;100.00;100750.91;5061202;28;20029;-74
2023/10/18 07:41:41;;;;;;;11.05;5.13;;;;;;;6.54;100.00;100752.00;5064920;28;20020;-72
2023/10/18 07:44:06;;;;;;;11.18;5.18;;;;;;;6.61;100.00;100751.31;5049491;28;20392;-73
2023/10/18 07:46:34;;;;;;;11.10;5.93;;;;;;;6.65;100.00;100747.31;5066418;28;20090;-72
2023/10/18 07:49:14;;;;;;;10.15;5.82;;;;;;;6.69;100.00;100751.28;5032787;28;20059;-76
2023/10/18 07:51:48;;;;;;;14.02;6.38;;;;;;;6.71;100.00;100741.34;5062832;28;20110;-76
2023/10/18 07:54:17;;;;;;;10.90;5.13;;;;;;;6.83;100.00;100747.88;5040663;28;20036;-75
2023/10/18 07:56:49;;;;;;;11.10;5.30;;;;;;;6.88;100.00;100747.34;5049569;28;20056;-68
2023/10/18 07:59:30;;;;;;;12.65;5.32;;;;;;;6.89;100.00;100723.34;5051640;28;20027;-75
2023/10/18 08:02:13;;;;;;;11.65;6.05;;;;;;;6.94;100.00;100728.94;5053775;28;20035;-73
2023/10/18 08:04:42;;;;;;;11.35;5.45;;;;;;;6.97;100.00;100728.56;5064613;28;20491;-72
2023/10/18 08:07:12;;;;;;;9.82;4.80;;;;;;;7.00;100.00;100728.22;5057203;28;20291;-73
2023/10/18 08:09:41;;;;;;;12.20;5.65;;;;;;;7.02;100.00;100725.38;5053005;28;20048;-72
2023/10/18 08:12:08;;;;;;;13.13;5.20;;;;;;;7.07;100.00;100720.38;5036029;28;20524;-73
2023/10/18 08:14:35;;;;;;;14.10;5.63;;;;;;;7.10;100.00;100717.38;5035785;28;20043;-72
2023/10/18 08:17:09;;;;;;;14.82;5.38;;;;;;;7.16;100.00;100716.66;5052955;28;20029;-72
2023/10/18 08:19:44;;;;;;;11.65;5.75;;;;;;;7.17;100.00;100720.97;5036344;28;20075;-73
2023/10/18 08:24:36;;;;;;;8.77;5.68;;;;;;;7.33;100.00;100716.53;5072298;28;20044;-72
2023/10/18 08:27:10;;;;;;;13.52;5.53;;;;;;;7.42;100.00;100713.63;5072078;28;20034;-73
2023/10/18 08:29:36;;;;;;;12.48;5.28;;;;;;;7.48;100.00;100706.78;5072188;28;20390;-74
2023/10/18 08:32:15;;;;;;;12.15;5.70;;;;;;;7.53;100.00;100719.53;5071661;28;20032;-73
2023/10/18 08:34:43;;;;;;;14.63;5.38;;;;;;;7.69;100.00;100716.69;5037064;28;20388;-75
2023/10/18 08:37:11;;;;;;;14.48;5.75;;;;;;;7.76;100.00;100699.06;5054866;28;20024;-74
2023/10/18 08:39:40;;;;;;;10.75;5.57;;;;;;;7.92;100.00;100711.31;5050299;28;20029;-74
2023/10/18 08:42:14;;;;;;;12.13;5.43;;;;;;;8.04;100.00;100720.50;5050760;28;20148;-73
2023/10/18 08:44:40;;;;;;;13.25;5.70;;;;;;;8.16;100.00;100710.22;5065488;28;20068;-73
2023/10/18 08:49:34;;;;;;;15.02;6.50;;;;;;;8.33;100.00;100709.03;5060652;28;20044;-74
2023/10/18 08:52:47;;;;;;;11.43;5.55;;;;;;;8.35;100.00;100709.63;5070180;28;20033;-75
2023/10/18 08:54:51;;;;;;;11.10;5.47;;;;;;;8.41;100.00;100704.63;5050893;28;20032;-74
2023/10/18 08:57:24;;;;;;;12.35;4.90;;;;;;;8.37;100.00;100690.88;5039653;28;20025;-76
2023/10/18 08:59:51;;;;;;;14.20;5.60;;;;;;;8.36;100.00;100683.91;5037719;28;20098;-75
2023/10/18 09:02:18;;;;;;;12.85;5.10;;;;;;;8.40;100.00;100685.19;5034561;28;20033;-76
2023/10/18 09:04:59;;;;;;;13.35;5.40;;;;;;;8.47;100.00;100672.81;5037398;28;20063;-74
2023/10/18 09:07:44;;;;;;;13.18;5.88;;;;;;;8.48;100.00;100660.34;5071515;28;20048;-75
2023/10/18 09:10:13;;;;;;;13.68;6.03;;;;;;;8.64;100.00;100662.78;5063483;28;20040;-75
2023/10/18 09:15:28;;;;;;;10.20;5.78;;;;;;;8.69;100.00;100647.06;5066229;28;20069;-74
2023/10/18 09:17:55;;;;;;;9.35;5.03;;;;;;;8.67;100.00;100642.97;5064413;28;20032;-75
2023/10/18 09:20:25;;;;;;;12.90;6.32;;;;;;;8.72;100.00;100645.88;5036694;28;20601;-74
2023/10/18 09:22:51;;;;;;;12.82;5.63;;;;;;;8.78;100.00;100651.28;5056358;28;20028;-74
2023/10/18 09:25:18;;;;;;;12.10;6.10;;;;;;;8.90;100.00;100642.78;5054492;28;20380;-72
2023/10/18 09:27:45;;;;;;;11.65;6.10;;;;;;;8.98;100.00;100640.81;5069181;28;20043;-76
2023/10/18 09:30:13;;;;;;;11.73;6.28;;;;;;;9.06;100.00;100637.19;5052889;28;20047;-74
2023/10/18 09:32:39;;;;;;;9.90;5.38;;;;;;;9.17;100.00;100635.88;5054870;28;20037;-76
2023/10/18 09:35:08;;;;;;;11.75;6.13;;;;;;;9.18;100.00;100630.34;5034044;28;20059;-71
2023/10/18 09:37:36;;;;;;;13.90;6.18;;;;;;;9.20;100.00;100625.66;5023261;28;20032;-77
2023/10/18 09:40:11;;;;;;;12.35;6.13;;;;;;;9.34;100.00;100625.75;5063044;28;20075;-70
2023/10/18 09:42:37;;;;;;;17.33;6.95;;;;;;;9.40;100.00;100623.13;5061577;28;20123;-76
2023/10/18 09:45:03;;;;;;;11.00;5.57;;;;;;;9.46;100.00;100618.03;5067249;28;20127;-77
2023/10/18 09:47:28;;;;;;;12.18;5.80;;;;;;;9.55;100.00;100609.69;5049976;28;20041;-77
2023/10/18 09:49:56;;;;;;;11.40;5.72;;;;;;;9.68;100.00;100602.81;5055068;28;20032;-77
2023/10/18 09:52:24;;;;;;;12.20;6.57;;;;;;;9.74;100.00;100604.69;5068667;28;20044;-77
2023/10/18 09:54:50;;;;;;;14.32;6.97;;;;;;;9.84;100.00;100602.47;5056315;28;20075;-76
2023/10/18 09:57:24;;;;;;;12.27;5.80;;;;;;;9.87;99.98;100589.56;5050933;28;20029;-76
2023/10/18 09:59:56;;;;;;;11.65;5.97;;;;;;;9.99;99.34;100589.84;5049951;28;20423;-76
2023/10/18 10:02:23;;;;;;;12.60;6.15;;;;;;;10.08;99.64;100591.28;5052112;28;20025;-76
2023/10/18 10:04:54;;;;;;;14.73;7.28;;;;;;;10.15;97.82;100585.19;5068454;28;20051;-76
2023/10/18 10:07:37;;;;;;;13.20;5.88;;;;;;;10.20;100.00;100577.41;5050121;28;20646;-76
2023/10/18 10:10:09;;;;;;;11.07;5.38;;;;;;;10.27;98.65;100573.78;5068789;28;20082;-76
2023/10/18 10:12:41;;;;;;;;;;;;;;;10.41;100.00;100566.63;5070802;28;20426;-76
2023/10/18 10:15:13;;;;;;;10.02;4.88;;;;;;;10.45;99.58;100572.38;5052163;28;19940;-76
2023/10/18 10:17:42;;;;;;;9.20;4.72;;;;;;;10.58;98.63;100566.22;5055710;28;20082;-77
2023/10/18 10:20:15;;;;;;;13.02;6.25;;;;;;;10.64;99.06;100547.56;5070151;28;20103;-76
2023/10/18 10:22:43;;;;;;;13.20;5.10;;;;;;;10.70;98.55;100544.09;5033616;28;20055;-77
2023/10/18 10:25:19;;;;;;;13.27;5.72;;;;;;;10.78;97.42;100548.41;5055435;28;20036;-76
2023/10/18 10:27:53;;;;;;;14.25;7.13;;;;;;;10.80;95.93;100540.19;5069365;28;20082;-76
2023/10/18 10:32:50;;;;;;;13.15;6.18;;;;;;;10.86;96.25;100524.16;5050779;28;20044;-74
2023/10/18 10:35:17;;;;;;;13.75;6.55;;;;;;;10.94;98.30;100521.28;5039858;28;20044;-74
2023/10/18 10:37:50;;;;;;;11.77;5.63;;;;;;;11.00;97.29;100503.63;5058127;28;20048;-74
2023/10/18 10:43:10;;;;;;;12.63;6.65;;;;;;;11.00;93.71;100500.13;5058959;28;20025;-74
2023/10/18 10:45:53;;;;;;;13.50;6.32;;;;;;;10.95;95.03;100484.75;5038735;28;20029;-74
2023/10/18 10:48:30;;;;;;;11.60;6.00;;;;;;;10.99;95.68;100485.97;5036921;28;20369;-73
2023/10/18 10:51:12;;;;;;;12.00;6.53;;;;;;;11.02;97.27;100471.41;5049849;28;20024;-74
2023/10/18 10:53:54;;;;;;;14.80;6.13;;;;;;;11.01;95.08;100465.25;5044297;28;20475;-74
2023/10/18 10:56:20;;;;;;;;;;;;;;;11.08;99.31;100457.22;5044131;28;20570;-74
2023/10/18 10:59:02;;;;;;;11.95;5.60;;;;;;;11.15;97.40;100460.69;5060181;28;19912;-74
2023/10/18 11:01:39;;;;;;;13.88;6.95;;;;;;;11.25;98.05;100460.25;5060001;28;20532;-74
2023/10/18 11:04:14;;;;;;;10.52;6.38;;;;;;;11.31;96.88;100451.41;5050193;28;20464;-73
2023/10/18 11:06:43;;;;;;;10.82;5.80;;;;;;;11.38;96.91;100445.00;5060531;28;20056;-73
2023/10/18 11:09:15;;;;;;;12.95;6.35;;;;;;;11.40;95.71;100431.47;5052943;28;20029;-73
2023/10/18 11:11:42;;;;;;;14.10;6.10;;;;;;;11.49;95.46;100429.34;5052676;28;20032;-73
2023/10/18 11:14:07;;;;;;;14.43;6.63;;;;;;;11.50;93.90;100437.16;5063260;28;20674;-73
2023/10/18 11:16:33;;;;;;;11.05;5.53;;;;;;;11.55;94.90;100426.66;5067605;28;20036;-74
2023/10/18 11:19:00;;;;;;;13.68;6.60;;;;;;;11.63;93.78;100425.56;5049811;28;20048;-74
2023/10/18 11:21:28;;;;;;;13.85;7.15;;;;;;;11.66;94.86;100409.13;5036779;28;20028;-74
2023/10/18 11:24:01;;;;;;;11.80;6.60;;;;;;;11.71;94.96;100406.63;5059081;28;20036;-74
2023/10/18 11:26:27;;;;;;;13.48;6.65;;;;;;;11.72;93.34;100413.59;5041193;28;20029;-73
2023/10/18 11:28:59;;;;;;;11.13;6.20;;;;;;;11.73;92.82;100404.53;5067096;28;20043;-74
2023/10/18 11:31:28;;;;;;;19.23;6.75;;;;;;;11.71;94.59;100387.09;5061148;28;20040;-74
2023/10/18 11:34:05;;;;;;;11.93;5.68;;;;;;;11.78;95.24;100386.03;5065748;28;20082;-74
2023/10/18 11:36:32;;;;;;;12.70;5.65;;;;;;;11.80;94.68;100375.13;5046943;28;20036;-74
2023/10/18 11:40:05;;;;;;;11.75;6.45;;;;;;;11.92;94.22;100384.13;5058471;28;20045;-74
2023/10/18 11:41:56;;;;;;;12.70;5.57;;;;;;;12.02;92.67;100375.59;5041736;28;20064;-74
2023/10/18 11:44:33;;;;;;;12.70;5.72;;;;;;;12.08;92.72;100361.38;5039462;28;20040;-74
2023/10/18 11:47:11;;;;;;;11.57;5.95;;;;;;;12.12;91.60;100359.09;5056907;28;20124;-74
2023/10/18 11:49:42;;;;;;;26.25;6.53;;;;;;;12.21;92.16;100355.91;5034106;28;20032;-74
2023/10/18 11:52:17;;;;;;;12.23;5.50;;;;;;;12.32;92.76;100345.53;5055247;28;20398;-73
2023/10/18 11:54:44;;;;;;;11.40;5.72;;;;;;;12.37;90.42;100353.72;5058431;28;20630;-74
2023/10/18 11:57:35;;;;;;;11.07;6.55;;;;;;;12.46;92.95;100347.03;5058531;28;20063;-74
2023/10/18 12:00:35;;;;;;;13.75;6.18;;;;;;;12.41;92.08;100338.84;5055512;28;20029;-74
2023/10/18 12:02:55;;;;;;;11.27;5.80;;;;;;;12.54;92.16;100344.06;5048745;28;20048;-73
2023/10/18 12:05:27;;;;;;;14.27;6.38;;;;;;;12.54;92.26;100329.88;5057942;28;20110;-74
2023/10/18 12:07:54;;;;;;;13.95;6.40;;;;;;;12.64;91.33;100317.63;5067302;28;20061;-73
2023/10/18 12:10:34;;;;;;;14.65;6.43;;;;;;;12.62;90.39;100302.81;5042558;28;20404;-73
2023/10/18 12:13:07;;;;;;;17.25;6.35;;;;;;;12.76;92.81;100298.13;5039666;28;21136;-74